sensor_id;sensor_type;location;lat;lon;timestamp;pressure;altitude;pressure_sealevel;temperature;humidity
46714;BME280;32445;51.376;10.874;2023-04-06T00:00:28;99810.00;;;2.21;42.88
46714;BME280;32445;51.376;10.874;2023-04-06T00:03:28;99808.25;;;2.17;42.66
46714;BME280;32445;51.376;10.874;2023-04-06T00:06:29;99811.63;;;2.14;42.75
46714;BME280;32445;51.376;10.874;2023-04-06T00:09:29;99811.56;;;2.11;42.57
46714;BME280;32445;51.376;10.874;2023-04-06T00:12:30;99800.41;;;2.06;42.86
46714;BME280;32445;51.376;10.874;2023-04-06T00:15:30;99802.94;;;2.04;43.24
46714;BME280;32445;51.376;10.874;2023-04-06T00:18:31;99802.91;;;2.01;43.50
46714;BME280;32445;51.376;10.874;2023-04-06T00:21:32;99802.03;;;1.98;43.65
46714;BME280;32445;51.376;10.874;2023-04-06T00:24:32;99802.81;;;1.94;43.31
46714;BME280;32445;51.376;10.874;2023-04-06T00:27:33;99797.63;;;1.90;43.46
46714;BME280;32445;51.376;10.874;2023-04-06T00:30:33;99790.78;;;1.88;43.50
46714;BME280;32445;51.376;10.874;2023-04-06T00:33:34;99791.59;;;1.84;43.69
46714;BME280;32445;51.376;10.874;2023-04-06T00:36:34;99800.06;;;1.80;43.60
46714;BME280;32445;51.376;10.874;2023-04-06T00:39:35;99801.69;;;1.76;43.64
46714;BME280;32445;51.376;10.874;2023-04-06T00:42:36;99802.53;;;1.73;43.43
46714;BME280;32445;51.376;10.874;2023-04-06T00:45:38;99793.94;;;1.70;43.66
46714;BME280;32445;51.376;10.874;2023-04-06T00:48:39;99786.22;;;1.67;43.90
46714;BME280;32445;51.376;10.874;2023-04-06T00:51:41;99789.56;;;1.63;43.96
46714;BME280;32445;51.376;10.874;2023-04-06T00:54:41;99783.56;;;1.59;44.02
46714;BME280;32445;51.376;10.874;2023-04-06T00:57:42;99777.53;;;1.55;44.15
46714;BME280;32445;51.376;10.874;2023-04-06T01:00:42;99785.16;;;1.52;43.90
46714;BME280;32445;51.376;10.874;2023-04-06T01:03:43;99778.28;;;1.50;43.59
46714;BME280;32445;51.376;10.874;2023-04-06T01:06:47;99777.41;;;1.46;43.80
46714;BME280;32445;51.376;10.874;2023-04-06T01:09:48;99776.47;;;1.43;43.97
46714;BME280;32445;51.376;10.874;2023-04-06T01:12:48;99779.84;;;1.40;43.96
46714;BME280;32445;51.376;10.874;2023-04-06T01:15:49;99765.31;;;1.37;43.67
46714;BME280;32445;51.376;10.874;2023-04-06T01:18:49;99762.69;;;1.33;43.80
46714;BME280;32445;51.376;10.874;2023-04-06T01:21:50;99767.78;;;1.31;44.29
46714;BME280;32445;51.376;10.874;2023-04-06T01:24:53;99761.78;;;1.28;43.95
46714;BME280;32445;51.376;10.874;2023-04-06T01:27:53;99760.00;;;1.24;43.76
46714;BME280;32445;51.376;10.874;2023-04-06T01:30:54;99762.50;;;1.20;44.16
46714;BME280;32445;51.376;10.874;2023-04-06T01:33:54;99771.00;;;1.18;44.31
46714;BME280;32445;51.376;10.874;2023-04-06T01:36:55;99758.97;;;1.14;44.21
46714;BME280;32445;51.376;10.874;2023-04-06T01:39:55;99754.69;;;1.11;44.13
46714;BME280;32445;51.376;10.874;2023-04-06T01:42:56;99749.53;;;1.08;44.15
46714;BME280;32445;51.376;10.874;2023-04-06T01:45:56;99750.31;;;1.06;44.01
46714;BME280;32445;51.376;10.874;2023-04-06T01:48:56;99755.38;;;1.02;44.25
46714;BME280;32445;51.376;10.874;2023-04-06T01:51:57;99745.94;;;0.98;44.10
46714;BME280;32445;51.376;10.874;2023-04-06T01:54:58;99751.03;;;0.97;44.01
46714;BME280;32445;51.376;10.874;2023-04-06T01:57:58;99752.69;;;0.93;44.30
46714;BME280;32445;51.376;10.874;2023-04-06T02:00:58;99750.94;;;0.91;44.49
46714;BME280;32445;51.376;10.874;2023-04-06T02:03:59;99744.91;;;0.87;44.65
46714;BME280;32445;51.376;10.874;2023-04-06T02:06:59;99747.41;;;0.84;44.34
46714;BME280;32445;51.376;10.874;2023-04-06T02:10:00;99746.50;;;0.80;44.23
46714;BME280;32445;51.376;10.874;2023-04-06T02:13:00;99742.22;;;0.78;44.17
46714;BME280;32445;51.376;10.874;2023-04-06T02:16:01;99749.81;;;0.75;44.67
46714;BME280;32445;51.376;10.874;2023-04-06T02:19:02;99750.63;;;0.72;44.65
46714;BME280;32445;51.376;10.874;2023-04-06T02:22:03;99749.69;;;0.68;44.18
46714;BME280;32445;51.376;10.874;2023-04-06T02:25:03;99743.72;;;0.66;44.54
46714;BME280;32445;51.376;10.874;2023-04-06T02:28:04;99740.22;;;0.63;44.85
46714;BME280;32445;51.376;10.874;2023-04-06T02:31:05;99742.72;;;0.60;44.61
46714;BME280;32445;51.376;10.874;2023-04-06T02:34:05;99743.53;;;0.57;44.96
46714;BME280;32445;51.376;10.874;2023-04-06T02:37:07;99745.22;;;0.55;44.76
46714;BME280;32445;51.376;10.874;2023-04-06T02:40:08;99740.91;;;0.54;44.81
46714;BME280;32445;51.376;10.874;2023-04-06T02:43:09;99747.72;;;0.52;45.09
46714;BME280;32445;51.376;10.874;2023-04-06T02:46:09;99738.28;;;0.49;45.15
46714;BME280;32445;51.376;10.874;2023-04-06T02:49:10;99740.81;;;0.48;44.95
46714;BME280;32445;51.376;10.874;2023-04-06T02:52:10;99743.34;;;0.46;45.04
46714;BME280;32445;51.376;10.874;2023-04-06T02:55:11;99739.88;;;0.44;45.07
46714;BME280;32445;51.376;10.874;2023-04-06T02:58:11;99741.56;;;0.42;44.83
46714;BME280;32445;51.376;10.874;2023-04-06T03:01:12;99739.84;;;0.41;45.02
46714;BME280;32445;51.376;10.874;2023-04-06T03:04:12;99744.06;;;0.39;45.23
46714;BME280;32445;51.376;10.874;2023-04-06T03:07:13;99741.47;;;0.38;44.98
46714;BME280;32445;51.376;10.874;2023-04-06T03:10:13;99744.00;;;0.36;45.11
46714;BME280;32445;51.376;10.874;2023-04-06T03:13:13;99737.16;;;0.33;45.14
46714;BME280;32445;51.376;10.874;2023-04-06T03:16:14;99745.59;;;0.31;45.02
46714;BME280;32445;51.376;10.874;2023-04-06T03:19:15;99741.28;;;0.28;45.19
46714;BME280;32445;51.376;10.874;2023-04-06T03:22:15;99740.41;;;0.26;45.29
46714;BME280;32445;51.376;10.874;2023-04-06T03:25:16;99740.38;;;0.23;45.10
46714;BME280;32445;51.376;10.874;2023-04-06T03:28:16;99742.88;;;0.22;45.08
46714;BME280;32445;51.376;10.874;2023-04-06T03:31:17;99745.41;;;0.20;45.31
46714;BME280;32445;51.376;10.874;2023-04-06T03:34:17;99748.72;;;0.16;45.25
46714;BME280;32445;51.376;10.874;2023-04-06T03:37:18;99750.41;;;0.15;45.14
46714;BME280;32445;51.376;10.874;2023-04-06T03:40:18;99746.94;;;0.12;45.47
46714;BME280;32445;51.376;10.874;2023-04-06T03:43:18;99749.47;;;0.10;45.37
46714;BME280;32445;51.376;10.874;2023-04-06T03:46:19;99749.44;;;0.09;45.47
46714;BME280;32445;51.376;10.874;2023-04-06T03:49:20;99760.47;;;0.08;45.48
46714;BME280;32445;51.376;10.874;2023-04-06T03:52:20;99757.00;;;0.06;45.51
46714;BME280;32445;51.376;10.874;2023-04-06T03:55:23;99757.88;;;0.05;45.24
46714;BME280;32445;51.376;10.874;2023-04-06T03:58:23;99756.91;;;0.01;45.41
46714;BME280;32445;51.376;10.874;2023-04-06T04:01:23;99756.03;;;-0.01;45.56
46714;BME280;32445;51.376;10.874;2023-04-06T04:04:24;99758.56;;;-0.03;45.77
46714;BME280;32445;51.376;10.874;2023-04-06T04:07:25;99758.44;;;-0.07;45.57
46714;BME280;32445;51.376;10.874;2023-04-06T04:10:25;99759.28;;;-0.10;45.50
46714;BME280;32445;51.376;10.874;2023-04-06T04:13:26;99757.50;;;-0.12;45.63
46714;BME280;32445;51.376;10.874;2023-04-06T04:16:26;99761.66;;;-0.16;45.60
46714;BME280;32445;51.376;10.874;2023-04-06T04:19:27;99761.63;;;-0.18;45.42
46714;BME280;32445;51.376;10.874;2023-04-06T04:22:27;99755.66;;;-0.20;45.75
46714;BME280;32445;51.376;10.874;2023-04-06T04:25:28;99760.72;;;-0.21;45.96
46714;BME280;32445;51.376;10.874;2023-04-06T04:28:28;99754.72;;;-0.23;45.67
46714;BME280;32445;51.376;10.874;2023-04-06T04:31:29;99756.38;;;-0.25;45.75
46714;BME280;32445;51.376;10.874;2023-04-06T04:34:29;99760.56;;;-0.27;45.64
46714;BME280;32445;51.376;10.874;2023-04-06T04:37:30;99756.28;;;-0.30;45.98
46714;BME280;32445;51.376;10.874;2023-04-06T04:40:30;99763.91;;;-0.31;45.92
46714;BME280;32445;51.376;10.874;2023-04-06T04:43:31;99762.19;;;-0.32;45.98
46714;BME280;32445;51.376;10.874;2023-04-06T04:46:31;99765.53;;;-0.35;45.91
46714;BME280;32445;51.376;10.874;2023-04-06T04:49:32;99762.09;;;-0.37;45.85
46714;BME280;32445;51.376;10.874;2023-04-06T04:52:32;99763.72;;;-0.39;45.93
46714;BME280;32445;51.376;10.874;2023-04-06T04:55:32;99764.53;;;-0.40;45.87
46714;BME280;32445;51.376;10.874;2023-04-06T04:58:33;99769.63;;;-0.42;46.41
46714;BME280;32445;51.376;10.874;2023-04-06T05:01:33;99764.47;;;-0.43;46.11
46714;BME280;32445;51.376;10.874;2023-04-06T05:04:35;99763.63;;;-0.44;46.26
46714;BME280;32445;51.376;10.874;2023-04-06T05:07:35;99764.41;;;-0.46;45.87
46714;BME280;32445;51.376;10.874;2023-04-06T05:10:36;99764.41;;;-0.46;46.09
46714;BME280;32445;51.376;10.874;2023-04-06T05:13:36;99762.69;;;-0.47;46.10
46714;BME280;32445;51.376;10.874;2023-04-06T05:16:37;99765.19;;;-0.49;46.00
46714;BME280;32445;51.376;10.874;2023-04-06T05:19:37;99767.75;;;-0.49;46.17
46714;BME280;32445;51.376;10.874;2023-04-06T05:22:38;99765.16;;;-0.50;45.96
46714;BME280;32445;51.376;10.874;2023-04-06T05:25:38;99771.16;;;-0.50;46.37
46714;BME280;32445;51.376;10.874;2023-04-06T05:28:39;99774.53;;;-0.51;46.72
46714;BME280;32445;51.376;10.874;2023-04-06T05:31:39;99771.16;;;-0.50;46.33
46714;BME280;32445;51.376;10.874;2023-04-06T05:34:40;99776.25;;;-0.50;46.27
46714;BME280;32445;51.376;10.874;2023-04-06T05:37:41;99782.19;;;-0.49;46.25
46714;BME280;32445;51.376;10.874;2023-04-06T05:40:42;99780.47;;;-0.50;46.47
46714;BME280;32445;51.376;10.874;2023-04-06T05:43:42;99786.44;;;-0.50;46.62
46714;BME280;32445;51.376;10.874;2023-04-06T05:46:43;99789.03;;;-0.48;46.73
46714;BME280;32445;51.376;10.874;2023-04-06T05:49:44;99791.59;;;-0.48;46.60
46714;BME280;32445;51.376;10.874;2023-04-06T05:52:44;99785.69;;;-0.46;46.72
46714;BME280;32445;51.376;10.874;2023-04-06T05:55:48;99795.94;;;-0.44;46.68
46714;BME280;32445;51.376;10.874;2023-04-06T05:58:48;99802.78;;;-0.42;46.81
46714;BME280;32445;51.376;10.874;2023-04-06T06:01:49;99791.75;;;-0.41;46.94
46714;BME280;32445;51.376;10.874;2023-04-06T06:04:49;99793.53;;;-0.37;47.11
46714;BME280;32445;51.376;10.874;2023-04-06T06:07:50;99791.13;;;-0.30;47.00
46714;BME280;32445;51.376;10.874;2023-04-06T06:10:50;99790.34;;;-0.28;47.21
46714;BME280;32445;51.376;10.874;2023-04-06T06:13:51;99795.50;;;-0.25;47.46
46714;BME280;32445;51.376;10.874;2023-04-06T06:16:51;99780.22;;;-0.23;47.37
46714;BME280;32445;51.376;10.874;2023-04-06T06:19:52;99788.78;;;-0.21;47.42
46714;BME280;32445;51.376;10.874;2023-04-06T06:22:52;99781.19;;;-0.18;47.53
46714;BME280;32445;51.376;10.874;2023-04-06T06:25:53;99791.50;;;-0.13;47.71
46714;BME280;32445;51.376;10.874;2023-04-06T06:28:53;99787.34;;;-0.10;47.70
46714;BME280;32445;51.376;10.874;2023-04-06T06:31:54;99783.97;;;-0.07;47.82
46714;BME280;32445;51.376;10.874;2023-04-06T06:34:54;99791.72;;;-0.04;47.92
46714;BME280;32445;51.376;10.874;2023-04-06T06:37:55;99782.38;;;-0.02;47.93
46714;BME280;32445;51.376;10.874;2023-04-06T06:40:55;99788.44;;;0.02;48.19
46714;BME280;32445;51.376;10.874;2023-04-06T06:43:56;99784.25;;;0.05;47.87
46714;BME280;32445;51.376;10.874;2023-04-06T06:46:56;99784.31;;;0.10;48.10
46714;BME280;32445;51.376;10.874;2023-04-06T06:49:57;99787.00;;;0.14;48.58
46714;BME280;32445;51.376;10.874;2023-04-06T06:52:57;99778.63;;;0.22;48.71
46714;BME280;32445;51.376;10.874;2023-04-06T06:55:58;99785.59;;;0.29;49.46
46714;BME280;32445;51.376;10.874;2023-04-06T06:58:58;99791.66;;;0.36;48.86
46714;BME280;32445;51.376;10.874;2023-04-06T07:01:59;99781.56;;;0.42;49.17
46714;BME280;32445;51.376;10.874;2023-04-06T07:04:59;99780.88;;;0.50;49.54
46714;BME280;32445;51.376;10.874;2023-04-06T07:07:59;99775.91;;;0.58;50.04
46714;BME280;32445;51.376;10.874;2023-04-06T07:11:00;99781.22;;;0.67;50.44
46714;BME280;32445;51.376;10.874;2023-04-06T07:14:00;99778.78;;;0.75;50.58
46714;BME280;32445;51.376;10.874;2023-04-06T07:17:01;99782.38;;;0.86;49.96
46714;BME280;32445;51.376;10.874;2023-04-06T07:20:02;99781.72;;;0.97;50.39
46714;BME280;32445;51.376;10.874;2023-04-06T07:23:02;99777.66;;;1.10;50.61
46714;BME280;32445;51.376;10.874;2023-04-06T07:26:03;99775.28;;;1.20;49.81
46714;BME280;32445;51.376;10.874;2023-04-06T07:29:03;99772.91;;;1.33;50.11
46714;BME280;32445;51.376;10.874;2023-04-06T07:32:04;99770.56;;;1.45;50.67
46714;BME280;32445;51.376;10.874;2023-04-06T07:35:04;99765.59;;;1.58;50.25
46714;BME280;32445;51.376;10.874;2023-04-06T07:38:05;99770.09;;;1.72;50.78
46714;BME280;32445;51.376;10.874;2023-04-06T07:41:05;99768.59;;;1.87;50.33
46714;BME280;32445;51.376;10.874;2023-04-06T07:44:06;99770.47;;;2.02;51.06
46714;BME280;32445;51.376;10.874;2023-04-06T07:47:07;99773.22;;;2.16;50.24
46714;BME280;32445;51.376;10.874;2023-04-06T07:50:07;99766.56;;;2.30;50.65
46714;BME280;32445;51.376;10.874;2023-04-06T07:53:08;99757.34;;;2.48;50.83
46714;BME280;32445;51.376;10.874;2023-04-06T07:56:09;99763.53;;;2.67;50.94
46714;BME280;32445;51.376;10.874;2023-04-06T07:59:10;99758.59;;;2.87;50.61
46714;BME280;32445;51.376;10.874;2023-04-06T08:02:11;99757.03;;;3.04;50.57
46714;BME280;32445;51.376;10.874;2023-04-06T08:05:12;99757.19;;;3.21;50.09
46714;BME280;32445;51.376;10.874;2023-04-06T08:08:12;99759.00;;;3.39;50.55
46714;BME280;32445;51.376;10.874;2023-04-06T08:11:13;99766.84;;;3.56;50.84
46714;BME280;32445;51.376;10.874;2023-04-06T08:14:13;99759.22;;;3.70;50.14
46714;BME280;32445;51.376;10.874;2023-04-06T08:17:13;99765.28;;;3.83;49.57
46714;BME280;32445;51.376;10.874;2023-04-06T08:20:14;99756.78;;;3.98;49.39
46714;BME280;32445;51.376;10.874;2023-04-06T08:23:15;99762.84;;;4.12;48.47
46714;BME280;32445;51.376;10.874;2023-04-06T08:26:15;99759.50;;;4.32;49.31
46714;BME280;32445;51.376;10.874;2023-04-06T08:29:16;99768.13;;;4.48;48.51
46714;BME280;32445;51.376;10.874;2023-04-06T08:32:16;99763.91;;;4.68;48.34
46714;BME280;32445;51.376;10.874;2023-04-06T08:35:17;99764.78;;;4.89;48.56
46714;BME280;32445;51.376;10.874;2023-04-06T08:38:17;99761.34;;;5.07;49.02
46714;BME280;32445;51.376;10.874;2023-04-06T08:41:18;99757.91;;;5.28;48.31
46714;BME280;32445;51.376;10.874;2023-04-06T08:44:18;99757.91;;;5.47;47.96
46714;BME280;32445;51.376;10.874;2023-04-06T08:47:19;99755.31;;;5.65;47.66
46714;BME280;32445;51.376;10.874;2023-04-06T08:50:20;99756.09;;;5.84;47.22
46714;BME280;32445;51.376;10.874;2023-04-06T08:53:21;99752.69;;;5.99;46.78
46714;BME280;32445;51.376;10.874;2023-04-06T08:56:22;99742.31;;;6.13;46.44
46714;BME280;32445;51.376;10.874;2023-04-06T08:59:24;99751.69;;;6.31;46.60
46714;BME280;32445;51.376;10.874;2023-04-06T09:02:26;99751.56;;;6.51;45.60
46714;BME280;32445;51.376;10.874;2023-04-06T09:05:27;99749.72;;;6.72;45.13
46714;BME280;32445;51.376;10.874;2023-04-06T09:08:28;99746.97;;;6.98;45.13
46714;BME280;32445;51.376;10.874;2023-04-06T09:11:28;99747.63;;;7.23;43.90
46714;BME280;32445;51.376;10.874;2023-04-06T09:14:38;99743.13;;;7.47;43.68
46714;BME280;32445;51.376;10.874;2023-04-06T09:17:43;99743.69;;;7.77;43.66
46714;BME280;32445;51.376;10.874;2023-04-06T09:20:44;99744.19;;;8.08;43.86
46714;BME280;32445;51.376;10.874;2023-04-06T09:23:44;99736.00;;;8.41;42.82
46714;BME280;32445;51.376;10.874;2023-04-06T09:26:46;99745.06;;;8.74;42.58
46714;BME280;32445;51.376;10.874;2023-04-06T09:29:47;99738.56;;;9.03;41.90
46714;BME280;32445;51.376;10.874;2023-04-06T09:32:52;99729.38;;;9.37;40.74
46714;BME280;32445;51.376;10.874;2023-04-06T09:35:52;99728.84;;;9.66;39.99
46714;BME280;32445;51.376;10.874;2023-04-06T09:38:55;99720.63;;;9.89;38.30
46714;BME280;32445;51.376;10.874;2023-04-06T09:41:56;99725.34;;;10.12;38.46
46714;BME280;32445;51.376;10.874;2023-04-06T09:44:56;99722.19;;;10.40;38.46
46714;BME280;32445;51.376;10.874;2023-04-06T09:47:57;99734.59;;;10.66;37.93
46714;BME280;32445;51.376;10.874;2023-04-06T09:50:59;99732.34;;;10.88;36.87
46714;BME280;32445;51.376;10.874;2023-04-06T09:54:04;99724.44;;;10.95;35.49
46714;BME280;32445;51.376;10.874;2023-04-06T09:57:18;99718.28;;;10.97;33.49
46714;BME280;32445;51.376;10.874;2023-04-06T10:00:22;99710.47;;;10.97;34.30
46714;BME280;32445;51.376;10.874;2023-04-06T10:03:29;99716.13;;;11.15;35.53
46714;BME280;32445;51.376;10.874;2023-04-06T10:06:34;99705.19;;;11.36;35.12
46714;BME280;32445;51.376;10.874;2023-04-06T10:09:37;99715.88;;;11.58;34.43
46714;BME280;32445;51.376;10.874;2023-04-06T10:12:39;99711.28;;;11.68;34.09
46714;BME280;32445;51.376;10.874;2023-04-06T10:15:41;99722.31;;;11.76;33.64
46714;BME280;32445;51.376;10.874;2023-04-06T10:18:44;99708.22;;;11.85;34.47
46714;BME280;32445;51.376;10.874;2023-04-06T10:21:50;99704.28;;;12.02;33.74
46714;BME280;32445;51.376;10.874;2023-04-06T10:24:53;99707.19;;;12.22;34.36
46714;BME280;32445;51.376;10.874;2023-04-06T10:28:01;99708.97;;;12.49;34.60
46714;BME280;32445;51.376;10.874;2023-04-06T10:31:05;99694.41;;;12.71;33.15
46714;BME280;32445;51.376;10.874;2023-04-06T10:34:06;99700.69;;;12.92;32.76
46714;BME280;32445;51.376;10.874;2023-04-06T10:37:16;99701.25;;;13.01;30.39
46714;BME280;32445;51.376;10.874;2023-04-06T10:40:24;99702.03;;;13.04;30.12
46714;BME280;32445;51.376;10.874;2023-04-06T10:43:25;99691.28;;;13.13;31.20
46714;BME280;32445;51.376;10.874;2023-04-06T10:46:30;99702.66;;;13.38;32.58
46714;BME280;32445;51.376;10.874;2023-04-06T10:49:30;99695.00;;;13.58;31.65
46714;BME280;32445;51.376;10.874;2023-04-06T10:52:31;99698.97;;;13.69;31.00
46714;BME280;32445;51.376;10.874;2023-04-06T10:55:32;99696.66;;;13.84;30.48
46714;BME280;32445;51.376;10.874;2023-04-06T10:58:32;99693.38;;;14.03;31.09
46714;BME280;32445;51.376;10.874;2023-04-06T11:01:33;99685.56;;;14.25;30.52
46714;BME280;32445;51.376;10.874;2023-04-06T11:04:33;99686.81;;;14.39;30.39
46714;BME280;32445;51.376;10.874;2023-04-06T11:07:34;99689.41;;;14.61;31.01
46714;BME280;32445;51.376;10.874;2023-04-06T11:10:35;99684.09;;;14.86;30.14
46714;BME280;32445;51.376;10.874;2023-04-06T11:13:43;99674.06;;;14.97;29.47
46714;BME280;32445;51.376;10.874;2023-04-06T11:16:46;99669.94;;;15.12;29.62
46714;BME280;32445;51.376;10.874;2023-04-06T11:19:48;99665.81;;;15.27;29.75
46714;BME280;32445;51.376;10.874;2023-04-06T11:22:50;99664.25;;;15.44;30.10
46714;BME280;32445;51.376;10.874;2023-04-06T11:25:53;99667.69;;;15.65;29.47
46714;BME280;32445;51.376;10.874;2023-04-06T11:28:54;99669.03;;;15.73;30.00
46714;BME280;32445;51.376;10.874;2023-04-06T11:34:58;99659.41;;;15.74;27.54
46714;BME280;32445;51.376;10.874;2023-04-06T11:38:02;99653.34;;;15.73;27.15
46714;BME280;32445;51.376;10.874;2023-04-06T11:41:03;99654.53;;;15.66;27.82
46714;BME280;32445;51.376;10.874;2023-04-06T11:44:05;99652.88;;;15.84;28.94
46714;BME280;32445;51.376;10.874;2023-04-06T11:47:07;99654.78;;;16.00;28.40
46714;BME280;32445;51.376;10.874;2023-04-06T11:50:13;99645.84;;;16.23;27.88
46714;BME280;32445;51.376;10.874;2023-04-06T11:53:13;99649.53;;;16.38;28.01
46714;BME280;32445;51.376;10.874;2023-04-06T11:56:24;99635.75;;;16.52;27.76
46714;BME280;32445;51.376;10.874;2023-04-06T11:59:25;99637.38;;;16.54;27.86
46714;BME280;32445;51.376;10.874;2023-04-06T12:02:27;99641.78;;;16.71;29.38
46714;BME280;32445;51.376;10.874;2023-04-06T12:05:27;99627.94;;;16.87;29.38
46714;BME280;32445;51.376;10.874;2023-04-06T12:08:28;99619.00;;;16.91;27.15
46714;BME280;32445;51.376;10.874;2023-04-06T12:11:28;99628.75;;;16.87;28.20
46714;BME280;32445;51.376;10.874;2023-04-06T12:14:29;99630.41;;;17.07;28.34
46714;BME280;32445;51.376;10.874;2023-04-06T12:17:30;99620.59;;;17.28;29.26
46714;BME280;32445;51.376;10.874;2023-04-06T12:20:31;99622.63;;;17.57;29.10
46714;BME280;32445;51.376;10.874;2023-04-06T12:23:31;99617.75;;;17.83;28.94
46714;BME280;32445;51.376;10.874;2023-04-06T12:26:32;99613.41;;;17.81;27.53
46714;BME280;32445;51.376;10.874;2023-04-06T12:29:33;99610.31;;;17.91;27.50
46714;BME280;32445;51.376;10.874;2023-04-06T12:32:33;99610.16;;;17.94;27.49
46714;BME280;32445;51.376;10.874;2023-04-06T12:35:34;99606.25;;;18.01;27.73
46714;BME280;32445;51.376;10.874;2023-04-06T12:38:35;99603.94;;;18.11;27.86
46714;BME280;32445;51.376;10.874;2023-04-06T12:41:38;99591.47;;;18.30;27.40
46714;BME280;32445;51.376;10.874;2023-04-06T12:44:41;99591.25;;;18.49;28.08
46714;BME280;32445;51.376;10.874;2023-04-06T12:47:42;99588.69;;;18.64;28.11
46714;BME280;32445;51.376;10.874;2023-04-06T12:50:43;99592.41;;;18.76;27.79
46714;BME280;32445;51.376;10.874;2023-04-06T12:53:43;99589.22;;;18.85;26.26
46714;BME280;32445;51.376;10.874;2023-04-06T12:56:44;99591.19;;;18.51;24.40
46714;BME280;32445;51.376;10.874;2023-04-06T12:59:45;99590.69;;;18.44;26.45
46714;BME280;32445;51.376;10.874;2023-04-06T13:02:46;99588.97;;;18.59;27.17
46714;BME280;32445;51.376;10.874;2023-04-06T13:05:48;99584.09;;;18.67;26.79
46714;BME280;32445;51.376;10.874;2023-04-06T13:08:48;99569.72;;;18.59;22.89
46714;BME280;32445;51.376;10.874;2023-04-06T13:11:50;99575.91;;;18.58;26.16
46714;BME280;32445;51.376;10.874;2023-04-06T13:14:50;99579.06;;;18.79;26.47
46714;BME280;32445;51.376;10.874;2023-04-06T13:17:52;99578.34;;;18.91;26.01
46714;BME280;32445;51.376;10.874;2023-04-06T13:20:53;99577.81;;;19.00;26.65
46714;BME280;32445;51.376;10.874;2023-04-06T13:23:55;99582.44;;;19.11;25.57
46714;BME280;32445;51.376;10.874;2023-04-06T13:26:56;99569.00;;;19.16;25.87
46714;BME280;32445;51.376;10.874;2023-04-06T13:29:57;99569.34;;;19.24;26.21
46714;BME280;32445;51.376;10.874;2023-04-06T13:32:57;99564.56;;;19.31;25.74
46714;BME280;32445;51.376;10.874;2023-04-06T13:35:58;99553.50;;;19.40;26.40
46714;BME280;32445;51.376;10.874;2023-04-06T13:38:59;99552.81;;;19.51;26.27
46714;BME280;32445;51.376;10.874;2023-04-06T13:42:00;99545.75;;;19.66;25.99
46714;BME280;32445;51.376;10.874;2023-04-06T13:45:01;99542.25;;;19.65;24.97
46714;BME280;32445;51.376;10.874;2023-04-06T13:48:02;99542.72;;;19.72;24.58
46714;BME280;32445;51.376;10.874;2023-04-06T13:51:12;99542.06;;;19.68;24.13
46714;BME280;32445;51.376;10.874;2023-04-06T13:54:13;99541.06;;;19.57;23.71
46714;BME280;32445;51.376;10.874;2023-04-06T13:57:13;99545.59;;;19.54;24.32
46714;BME280;32445;51.376;10.874;2023-04-06T14:00:14;99535.69;;;19.58;23.55
46714;BME280;32445;51.376;10.874;2023-04-06T14:03:14;99532.50;;;19.67;25.01
46714;BME280;32445;51.376;10.874;2023-04-06T14:06:15;99538.28;;;19.87;25.14
46714;BME280;32445;51.376;10.874;2023-04-06T14:09:15;99530.63;;;19.97;25.29
46714;BME280;32445;51.376;10.874;2023-04-06T14:12:16;99533.06;;;20.00;23.57
46714;BME280;32445;51.376;10.874;2023-04-06T14:15:16;99523.59;;;19.97;24.19
46714;BME280;32445;51.376;10.874;2023-04-06T14:18:17;99518.44;;;20.09;24.83
46714;BME280;32445;51.376;10.874;2023-04-06T14:21:17;99533.38;;;20.22;24.54
46714;BME280;32445;51.376;10.874;2023-04-06T14:24:20;99518.00;;;20.29;24.04
46714;BME280;32445;51.376;10.874;2023-04-06T14:27:20;99517.34;;;20.26;24.54
46714;BME280;32445;51.376;10.874;2023-04-06T14:30:21;99512.63;;;20.31;24.45
46714;BME280;32445;51.376;10.874;2023-04-06T14:33:21;99511.16;;;20.39;25.47
46714;BME280;32445;51.376;10.874;2023-04-06T14:36:22;99508.00;;;20.47;23.51
46714;BME280;32445;51.376;10.874;2023-04-06T14:39:22;99502.53;;;20.50;24.25
46714;BME280;32445;51.376;10.874;2023-04-06T14:42:23;99508.44;;;20.54;24.51
46714;BME280;32445;51.376;10.874;2023-04-06T14:45:23;99513.25;;;20.34;23.02
46714;BME280;32445;51.376;10.874;2023-04-06T14:48:24;99520.50;;;20.18;23.92
46714;BME280;32445;51.376;10.874;2023-04-06T14:51:25;99502.50;;;20.25;25.11
46714;BME280;32445;51.376;10.874;2023-04-06T14:54:27;99503.47;;;20.36;25.41
46714;BME280;32445;51.376;10.874;2023-04-06T14:57:27;99503.81;;;20.45;25.14
46714;BME280;32445;51.376;10.874;2023-04-06T15:00:27;99498.94;;;20.51;24.99
46714;BME280;32445;51.376;10.874;2023-04-06T15:03:29;99501.19;;;20.57;25.22
46714;BME280;32445;51.376;10.874;2023-04-06T15:06:29;99498.94;;;20.64;25.27
46714;BME280;32445;51.376;10.874;2023-04-06T15:09:30;99495.72;;;20.73;25.51
46714;BME280;32445;51.376;10.874;2023-04-06T15:12:30;99489.81;;;20.83;25.95
46714;BME280;32445;51.376;10.874;2023-04-06T15:15:32;99489.28;;;20.90;25.43
46714;BME280;32445;51.376;10.874;2023-04-06T15:18:33;99494.84;;;20.99;25.56
46714;BME280;32445;51.376;10.874;2023-04-06T15:21:34;99496.00;;;21.07;25.34
46714;BME280;32445;51.376;10.874;2023-04-06T15:24:35;99506.03;;;21.15;25.50
46714;BME280;32445;51.376;10.874;2023-04-06T15:27:35;99496.97;;;21.19;25.37
46714;BME280;32445;51.376;10.874;2023-04-06T15:30:36;99492.19;;;21.24;25.43
46714;BME280;32445;51.376;10.874;2023-04-06T15:33:36;99492.81;;;21.28;25.41
46714;BME280;32445;51.376;10.874;2023-04-06T15:36:38;99492.59;;;21.31;23.93
46714;BME280;32445;51.376;10.874;2023-04-06T15:39:38;99495.97;;;21.33;25.23
46714;BME280;32445;51.376;10.874;2023-04-06T15:42:39;99487.94;;;21.35;25.68
46714;BME280;32445;51.376;10.874;2023-04-06T15:45:40;99484.25;;;21.37;25.08
46714;BME280;32445;51.376;10.874;2023-04-06T15:48:41;99484.47;;;21.34;24.12
46714;BME280;32445;51.376;10.874;2023-04-06T15:51:41;99485.63;;;21.30;25.10
46714;BME280;32445;51.376;10.874;2023-04-06T15:54:42;99483.63;;;21.34;25.69